Somerset, Texas
Current Conditions -  °F | °C
As of 11:58 PM on Tuesday 25 Nov 2014 (Local Time) from KSKF Reporting Station
Clear Clear  
Wind Chill: 44°   Ceiling: Unl
Heat Index: 44°   Visibility: 10mi
Dew Point: 33°   Wind: 0mph
Humidity: 66%   Direction: NA
Pressure: 30.2"   Gusts: NA
Location:  29.23°N, 98.66°W
Report Text: KSKF 260558Z AUTO 00000KT 10SM CLR 07/01 A3020 RMK AO2 SLP227 T00670007 10151 20067 401950029 57009 $
Loading
Personal Weather Stations






























Interactive Weather Map New forecast layout! Learn more

10-Day Weather Forecast

Advertisements
Track Severe Weather on mobile